Time;durP1;ratioP1;P1;durP2;ratioP2;P2;SDS_P1;SDS_P2;PMS_P1;PMS_P2;Temp;Humidity;BMP_temperature;BMP_pressure;BME280_temperature;BME280_humidity;BME280_pressure;Samples;Min_cycle;Max_cycle;Signal;HPM_P1;HPM_P2
2020/12/12 00:00:28;;;;;;;6.27;4.77;;;;;;;6.07;100.00;95436.25;5054959;28;20233;-85
2020/12/12 00:02:55;;;;;;;7.57;5.87;;;;;;;6.11;100.00;95441.00;5055235;28;20285;-84
2020/12/12 00:05:22;;;;;;;5.77;4.30;;;;;;;5.93;100.00;95435.78;5054769;28;20244;-85
2020/12/12 00:07:50;;;;;;;6.87;3.70;;;;;;;5.94;100.00;95440.03;5054551;28;20205;-83
2020/12/12 00:10:17;;;;;;;5.43;4.73;;;;;;;6.04;100.00;95436.53;5054700;28;20334;-84
2020/12/12 00:12:44;;;;;;;5.17;4.07;;;;;;;6.06;100.00;95431.97;5054938;28;20197;-84
2020/12/12 00:15:11;;;;;;;5.50;4.93;;;;;;;6.10;100.00;95423.72;5054564;28;20292;-84
2020/12/12 00:17:38;;;;;;;6.13;5.57;;;;;;;6.03;100.00;95414.84;5054500;28;20728;-84
2020/12/12 00:20:05;;;;;;;7.50;4.90;;;;;;;6.03;100.00;95411.44;5054564;28;20237;-85
2020/12/12 00:22:32;;;;;;;5.77;4.80;;;;;;;5.97;100.00;95417.25;5054953;28;20244;-84
2020/12/12 00:24:59;;;;;;;4.80;4.40;;;;;;;6.14;100.00;95409.38;5054443;28;20208;-84
2020/12/12 00:27:26;;;;;;;4.97;4.43;;;;;;;6.01;100.00;95408.13;5054763;28;20255;-85
2020/12/12 00:29:53;;;;;;;8.43;5.00;;;;;;;6.08;100.00;95404.78;5054400;28;20225;-84
2020/12/12 00:32:20;;;;;;;3.93;3.63;;;;;;;6.16;100.00;95412.63;5054636;28;20226;-85
2020/12/12 00:34:47;;;;;;;4.20;3.80;;;;;;;6.07;100.00;95408.34;5054779;28;20201;-84
2020/12/12 00:37:13;;;;;;;4.40;4.00;;;;;;;6.14;100.00;95408.56;5054299;28;20241;-85
2020/12/12 00:39:40;;;;;;;6.47;3.47;;;;;;;6.21;100.00;95401.78;5054422;28;20670;-86
2020/12/12 00:42:08;;;;;;;3.87;3.47;;;;;;;6.22;100.00;95406.00;5054303;28;20190;-86
2020/12/12 00:44:35;;;;;;;4.57;3.57;;;;;;;6.24;100.00;95400.66;5054325;28;20237;-85
2020/12/12 00:47:04;;;;;;;3.77;3.47;;;;;;;6.18;100.00;95395.06;5054011;28;20488;-85
2020/12/12 00:49:31;;;;;;;3.93;3.00;;;;;;;6.23;100.00;95391.97;5054400;28;20288;-84
2020/12/12 00:51:58;;;;;;;6.23;3.30;;;;;;;6.26;100.00;95383.03;5053422;28;20722;-85
2020/12/12 00:54:25;;;;;;;3.30;3.00;;;;;;;6.21;100.00;95382.69;5054624;28;20247;-85
2020/12/12 00:56:51;;;;;;;4.30;3.90;;;;;;;6.16;100.00;95378.72;5053891;28;20701;-85
2020/12/12 00:59:19;;;;;;;3.43;3.13;;;;;;;6.18;100.00;95368.16;5053851;28;20237;-85
2020/12/12 01:01:46;;;;;;;5.70;3.00;;;;;;;6.32;100.00;95372.81;5053666;28;20190;-84
2020/12/12 01:04:13;;;;;;;3.57;3.07;;;;;;;6.33;100.00;95366.59;5053554;28;20202;-85
2020/12/12 01:06:40;;;;;;;4.23;3.20;;;;;;;6.36;100.00;95361.06;5052853;28;20252;-84
2020/12/12 01:09:07;;;;;;;4.90;3.93;;;;;;;6.38;100.00;95364.38;5053606;28;20287;-84
2020/12/12 01:11:34;;;;;;;3.33;2.80;;;;;;;6.37;100.00;95354.91;5053380;28;20225;-83
2020/12/12 01:14:01;;;;;;;3.37;3.07;;;;;;;6.34;100.00;95354.38;5053870;28;20202;-83
2020/12/12 01:16:29;;;;;;;3.77;3.37;;;;;;;6.35;100.00;95350.81;5053764;28;20198;-84
2020/12/12 01:18:56;;;;;;;3.63;3.33;;;;;;;6.37;100.00;95341.84;5053505;28;20273;-83
2020/12/12 01:21:22;;;;;;;3.03;2.83;;;;;;;6.38;100.00;95343.47;5053018;28;20280;-84
2020/12/12 01:23:49;;;;;;;4.50;3.03;;;;;;;6.26;100.00;95333.47;5053343;28;20237;-83
2020/12/12 01:26:16;;;;;;;4.97;3.57;;;;;;;6.26;100.00;95328.22;5053488;28;20331;-84
2020/12/12 01:28:43;;;;;;;3.73;3.23;;;;;;;6.24;100.00;95320.56;5053283;28;20210;-83
2020/12/12 01:31:12;;;;;;;4.27;3.37;;;;;;;6.29;100.00;95318.31;5052991;28;20706;-84
2020/12/12 01:33:40;;;;;;;3.97;3.60;;;;;;;6.36;100.00;95318.50;5052954;28;20252;-85
2020/12/12 01:36:07;;;;;;;5.17;3.60;;;;;;;6.34;100.00;95305.63;5053013;28;20248;-84
2020/12/12 01:38:34;;;;;;;4.23;3.63;;;;;;;6.24;100.00;95307.53;5053437;28;20261;-85
2020/12/12 01:41:01;;;;;;;6.27;4.53;;;;;;;6.34;100.00;95300.41;5053193;28;20198;-83
2020/12/12 01:43:28;;;;;;;4.77;3.93;;;;;;;6.18;100.00;95297.72;5053037;28;20202;-84
2020/12/12 01:45:55;;;;;;;5.20;4.07;;;;;;;6.11;100.00;95294.91;5052843;28;20202;-84
2020/12/12 01:48:22;;;;;;;4.83;4.33;;;;;;;6.13;100.00;95282.53;5052853;28;20264;-83
2020/12/12 01:50:51;;;;;;;8.03;5.50;;;;;;;6.21;100.00;95273.91;5052700;28;20221;-83
2020/12/12 01:53:19;;;;;;;5.60;4.53;;;;;;;6.15;100.00;95267.53;5052745;28;20244;-84
2020/12/12 01:55:48;;;;;;;4.80;4.30;;;;;;;6.21;100.00;95275.72;5052585;28;20236;-84
2020/12/12 01:58:15;;;;;;;4.97;3.97;;;;;;;6.05;100.00;95261.59;5052956;28;20210;-85
2020/12/12 02:00:42;;;;;;;5.27;4.67;;;;;;;6.23;100.00;95261.50;5052451;28;20229;-83
2020/12/12 02:03:11;;;;;;;5.53;4.97;;;;;;;6.12;100.00;95260.00;5052124;28;20632;-83
2020/12/12 02:05:39;;;;;;;4.93;4.53;;;;;;;6.00;100.00;95261.25;5052333;28;20201;-83
2020/12/12 02:08:11;;;;;;;6.17;5.57;;;;;;;6.14;100.00;95249.44;5052770;28;20202;-83
2020/12/12 02:10:40;;;;;;;6.87;5.13;;;;;;;6.12;100.00;95253.97;5052304;28;20293;-83
2020/12/12 02:13:08;;;;;;;5.53;5.00;;;;;;;6.15;100.00;95238.00;5052279;28;20198;-84
2020/12/12 02:15:35;;;;;;;5.17;4.67;;;;;;;6.28;100.00;95237.59;5052277;28;20285;-83
2020/12/12 02:18:03;;;;;;;4.80;4.30;;;;;;;6.24;100.00;95234.47;5052369;28;20255;-83
2020/12/12 02:20:30;;;;;;;6.57;4.67;;;;;;;6.23;100.00;95229.38;5052160;28;20304;-84
2020/12/12 02:22:58;;;;;;;5.53;5.03;;;;;;;6.15;100.00;95220.56;5052235;28;20194;-83
2020/12/12 02:25:25;;;;;;;5.83;5.33;;;;;;;6.14;100.00;95225.94;5052063;28;20197;-82
2020/12/12 02:27:54;;;;;;;6.87;5.70;;;;;;;6.18;100.00;95217.63;5052353;28;20675;-83
2020/12/12 02:30:21;;;;;;;5.77;5.27;;;;;;;6.20;100.00;95214.88;5051898;28;20697;-84
2020/12/12 02:32:49;;;;;;;6.10;5.40;;;;;;;6.12;100.00;95207.00;5051863;28;20194;-83
2020/12/12 02:35:17;;;;;;;7.53;6.40;;;;;;;6.23;100.00;95211.94;5051883;28;20198;-83
2020/12/12 02:37:44;;;;;;;8.70;6.30;;;;;;;6.27;100.00;95202.84;5051965;28;20663;-84
2020/12/12 02:40:11;;;;;;;8.07;6.50;;;;;;;6.29;100.00;95197.44;5051928;28;20194;-83
2020/12/12 02:42:38;;;;;;;6.83;6.13;;;;;;;6.16;100.00;95198.69;5051993;28;20717;-84
2020/12/12 02:45:05;;;;;;;8.00;7.20;;;;;;;6.21;100.00;95189.63;5051828;28;20233;-85
2020/12/12 02:47:34;;;;;;;7.00;6.40;;;;;;;6.02;100.00;95188.88;5051949;28;20257;-84
2020/12/12 02:50:08;;;;;;;4.17;3.77;;;;;;;6.35;100.00;95181.16;5051935;28;20201;-84
2020/12/12 02:52:35;;;;;;;2.70;2.50;;;;;;;6.62;100.00;95180.09;5052017;28;20736;-82
2020/12/12 02:55:02;;;;;;;4.33;3.93;;;;;;;6.69;100.00;95177.66;5052394;28;20234;-84
2020/12/12 02:57:29;;;;;;;5.67;4.57;;;;;;;6.82;100.00;95173.59;5051900;28;20233;-82
2020/12/12 02:59:56;;;;;;;10.87;7.93;;;;;;;6.88;100.00;95170.31;5051666;28;20686;-83
2020/12/12 03:02:23;;;;;;;5.03;3.97;;;;;;;6.88;100.00;95170.31;5052032;28;20198;-84
2020/12/12 03:04:50;;;;;;;3.13;2.83;;;;;;;6.87;100.00;95167.88;5051779;28;20198;-85
2020/12/12 03:07:17;;;;;;;3.20;3.00;;;;;;;6.91;100.00;95162.16;5051573;28;20209;-84
2020/12/12 03:09:44;;;;;;;3.77;2.70;;;;;;;6.94;100.00;95162.81;5051663;28;20205;-83
2020/12/12 03:12:11;;;;;;;2.90;2.13;;;;;;;6.93;100.00;95161.16;5051419;28;20217;-84
2020/12/12 03:14:39;;;;;;;2.60;2.40;;;;;;;6.88;100.00;95159.06;5055055;28;20221;-82
2020/12/12 03:17:09;;;;;;;5.03;4.53;;;;;;;6.92;100.00;95144.69;5055590;28;20284;-84
2020/12/12 03:19:36;;;;;;;4.03;3.63;;;;;;;6.84;100.00;95137.66;5055609;28;20229;-82
2020/12/12 03:22:03;;;;;;;3.93;3.63;;;;;;;6.86;100.00;95133.09;5055597;28;20221;-82
2020/12/12 03:24:30;;;;;;;5.60;4.97;;;;;;;6.85;100.00;95133.25;5055973;28;20659;-83
2020/12/12 03:26:57;;;;;;;4.80;4.33;;;;;;;6.86;100.00;95133.09;5055468;28;20197;-83
2020/12/12 03:29:25;;;;;;;10.53;5.17;;;;;;;6.89;100.00;95129.31;5055632;28;20285;-84
2020/12/12 03:31:52;;;;;;;5.43;4.90;;;;;;;6.86;100.00;95120.06;5055419;28;20272;-83
2020/12/12 03:34:19;;;;;;;7.30;6.20;;;;;;;6.97;100.00;95128.53;5055508;28;20194;-83
2020/12/12 03:36:46;;;;;;;8.60;5.67;;;;;;;6.91;100.00;95117.75;5055387;28;20621;-83
2020/12/12 03:39:13;;;;;;;6.60;5.60;;;;;;;6.96;100.00;95108.59;5055384;28;20202;-83
2020/12/12 03:41:40;;;;;;;5.33;4.73;;;;;;;6.93;100.00;95111.53;5055220;28;20190;-83
2020/12/12 03:44:07;;;;;;;5.63;4.80;;;;;;;6.94;100.00;95108.78;5055202;28;20229;-83
2020/12/12 03:46:34;;;;;;;6.43;4.90;;;;;;;6.96;100.00;95105.97;5054962;28;20190;-82
2020/12/12 03:49:02;;;;;;;5.47;5.00;;;;;;;6.94;100.00;95106.16;5055467;28;20746;-83
2020/12/12 03:51:28;;;;;;;5.10;4.60;;;;;;;6.96;100.00;95100.75;5055214;28;20593;-83
2020/12/12 03:53:55;;;;;;;3.97;3.63;;;;;;;6.97;100.00;95102.41;5055432;28;20606;-83
2020/12/12 03:56:22;;;;;;;3.93;3.57;;;;;;;6.99;100.00;95092.59;5054786;28;20229;-83
2020/12/12 03:58:49;;;;;;;1.73;1.63;;;;;;;7.06;100.00;95101.41;5055024;28;20201;-82
2020/12/12 04:01:16;;;;;;;3.10;2.03;;;;;;;7.06;100.00;95094.38;5055260;28;20277;-83
2020/12/12 04:03:42;;;;;;;2.10;2.00;;;;;;;7.06;100.00;95094.38;5054998;28;20205;-81
2020/12/12 04:06:10;;;;;;;2.80;2.20;;;;;;;7.06;100.00;95091.75;5050007;28;20256;-83
2020/12/12 04:08:37;;;;;;;2.20;2.00;;;;;;;7.06;100.00;95088.34;5052723;28;20202;-83
2020/12/12 04:11:04;;;;;;;2.33;2.13;;;;;;;7.06;100.00;95081.31;5052684;28;20698;-84
2020/12/12 04:13:31;;;;;;;4.60;3.70;;;;;;;7.07;100.00;95093.41;5052163;28;20276;-85
2020/12/12 04:15:58;;;;;;;5.90;4.70;;;;;;;7.12;100.00;95087.69;5051655;28;20737;-82
2020/12/12 04:18:25;;;;;;;3.53;2.47;;;;;;;7.07;100.00;95077.75;5034978;28;20317;-83
2020/12/12 04:20:51;;;;;;;5.40;4.80;;;;;;;7.05;100.00;95084.91;5049669;28;20621;-83
2020/12/12 04:23:19;;;;;;;2.30;2.10;;;;;;;7.06;100.00;95088.34;5033074;28;20203;-83
2020/12/12 04:25:46;;;;;;;5.23;4.73;;;;;;;7.05;100.00;95082.31;5031641;28;20281;-83
2020/12/12 04:28:13;;;;;;;3.03;2.00;;;;;;;7.13;100.00;95084.09;5032327;28;20253;-83
2020/12/12 04:30:40;;;;;;;1.80;1.70;;;;;;;7.05;100.00;95073.66;5032166;28;20199;-84
2020/12/12 04:33:06;;;;;;;2.20;2.03;;;;;;;7.06;100.00;95075.28;5031992;28;20198;-84
2020/12/12 04:35:33;;;;;;;2.40;2.07;;;;;;;7.03;100.00;95067.78;5033895;28;20194;-83
2020/12/12 04:38:00;;;;;;;2.87;2.67;;;;;;;7.02;100.00;95079.22;5034628;28;20256;-82
2020/12/12 04:40:30;;;;;;;2.60;2.40;;;;;;;6.99;100.00;95066.47;5033826;28;20207;-82
2020/12/12 04:42:57;;;;;;;2.40;2.20;;;;;;;7.02;100.00;95071.38;5034641;28;20256;-82
2020/12/12 04:45:24;;;;;;;2.80;2.50;;;;;;;7.01;100.00;95060.09;5033999;28;20201;-82
2020/12/12 04:47:51;;;;;;;3.27;3.07;;;;;;;6.98;100.00;95068.28;5033997;28;20245;-82
2020/12/12 04:50:18;;;;;;;2.50;2.30;;;;;;;6.93;100.00;95061.91;5034172;28;20578;-82
2020/12/12 04:52:57;;;;;;;3.17;2.87;;;;;;;6.89;100.00;95057.03;5034031;28;20217;-82
2020/12/12 04:55:27;;;;;;;2.93;2.73;;;;;;;6.91;100.00;95056.84;5033796;28;20671;-83
2020/12/12 04:57:54;;;;;;;2.90;2.00;;;;;;;6.90;100.00;95057.84;5033997;28;20253;-83
2020/12/12 05:00:21;;;;;;;2.43;2.23;;;;;;;6.94;100.00;95045.28;5033892;28;20202;-82
2020/12/12 05:02:48;;;;;;;3.53;2.90;;;;;;;6.98;100.00;95043.94;5033912;28;20205;-84
2020/12/12 05:05:15;;;;;;;3.00;2.53;;;;;;;6.99;100.00;95035.13;5033675;28;20203;-83
2020/12/12 05:07:42;;;;;;;4.67;4.00;;;;;;;7.03;100.00;95044.25;5033814;28;20199;-81
2020/12/12 05:10:09;;;;;;;6.53;5.40;;;;;;;6.98;100.00;95044.75;5033395;28;20202;-83
2020/12/12 05:12:37;;;;;;;5.57;4.97;;;;;;;7.01;100.00;95034.00;5033763;28;20223;-85
2020/12/12 05:15:26;;;;;;;;;;;;;;;;;;;;;
2020/12/12 05:17:55;;;;;;;3.17;2.43;;;;;;;7.10;100.00;95034.75;5033023;28;20203;-82
2020/12/12 05:20:22;;;;;;;3.63;3.17;;;;;;;7.07;100.00;95024.69;5033356;28;20318;-83
2020/12/12 05:22:49;;;;;;;2.97;2.60;;;;;;;7.08;100.00;95021.88;5033505;28;20199;-82
2020/12/12 05:25:16;;;;;;;3.87;2.63;;;;;;;7.05;100.00;95021.41;5033355;28;20679;-83
2020/12/12 05:27:45;;;;;;;3.40;3.10;;;;;;;7.07;100.00;95027.28;5033490;28;20238;-83
2020/12/12 05:30:11;;;;;;;4.83;4.20;;;;;;;7.08;100.00;95024.50;5033265;28;20203;-81
2020/12/12 05:32:38;;;;;;;3.70;3.40;;;;;;;7.08;100.00;95026.31;5033294;28;20309;-82
2020/12/12 05:35:06;;;;;;;2.57;2.43;;;;;;;7.11;100.00;95015.50;5033120;28;20260;-83
2020/12/12 05:37:38;;;;;;;3.27;2.40;;;;;;;7.10;100.00;95019.09;5033003;28;20202;-82
2020/12/12 05:40:05;;;;;;;9.63;5.43;;;;;;;7.04;100.00;95017.97;5033027;28;20306;-83
2020/12/12 05:42:35;;;;;;;7.73;5.83;;;;;;;7.02;100.00;95013.91;5033778;28;20194;-82
2020/12/12 05:45:06;;;;;;;6.93;5.27;;;;;;;7.02;100.00;95016.50;5033384;28;20729;-82
2020/12/12 05:47:33;;;;;;;6.13;5.47;;;;;;;7.01;100.00;95007.88;5033065;28;20183;-83
2020/12/12 05:50:00;;;;;;;7.50;6.10;;;;;;;7.06;100.00;95005.53;5033021;28;20211;-81
2020/12/12 05:52:29;;;;;;;10.27;8.00;;;;;;;7.07;100.00;95009.00;5033198;28;20676;-82
2020/12/12 05:54:58;;;;;;;10.00;9.00;;;;;;;7.07;100.00;94998.56;5032768;28;20203;-82
2020/12/12 05:57:27;;;;;;;9.52;8.38;;;;;;;7.11;100.00;94987.59;5032482;28;20549;-82
2020/12/12 05:59:55;;;;;;;8.73;7.83;;;;;;;7.15;100.00;94994.09;5032412;28;20683;-83
2020/12/12 06:02:25;;;;;;;12.60;9.13;;;;;;;7.18;100.00;95002.59;5032966;28;20272;-82
2020/12/12 06:04:53;;;;;;;16.50;13.60;;;;;;;7.15;100.00;94994.09;5032733;28;20183;-83
2020/12/12 06:07:30;;;;;;;8.33;6.47;;;;;;;7.09;100.00;95002.59;5032698;28;20202;-82
2020/12/12 06:09:59;;;;;;;6.97;6.27;;;;;;;7.11;100.00;95002.44;5032613;28;20182;-82
2020/12/12 06:12:27;;;;;;;6.83;6.27;;;;;;;7.08;100.00;94993.16;5032389;28;20218;-82
2020/12/12 06:14:57;;;;;;;12.70;7.83;;;;;;;7.11;100.00;94994.63;5032344;28;20663;-82
2020/12/12 06:17:37;;;;;;;7.07;6.37;;;;;;;7.06;100.00;94987.25;5032767;28;20206;-83
2020/12/12 06:20:05;;;;;;;6.23;5.63;;;;;;;7.08;100.00;95000.97;5031999;28;20238;-81
2020/12/12 06:22:33;;;;;;;7.47;5.83;;;;;;;7.11;100.00;94994.63;5032766;28;20183;-82
2020/12/12 06:25:02;;;;;;;7.47;6.27;;;;;;;7.14;100.00;94999.50;5032542;28;20617;-81
2020/12/12 06:27:37;;;;;;;4.33;3.93;;;;;;;7.09;100.00;94991.34;5032087;28;20253;-82
2020/12/12 06:30:06;;;;;;;9.70;8.70;;;;;;;7.08;100.00;94987.09;5032317;28;20187;-81
2020/12/12 06:32:34;;;;;;;9.87;8.47;;;;;;;7.12;100.00;94996.22;5031959;28;20233;-82
2020/12/12 06:35:01;;;;;;;6.30;5.80;;;;;;;7.11;100.00;94995.44;5032054;28;20230;-82
2020/12/12 06:37:32;;;;;;;6.70;5.97;;;;;;;7.10;100.00;94987.72;5032193;28;20729;-81
2020/12/12 06:40:01;;;;;;;4.33;3.90;;;;;;;7.05;100.00;94990.88;5032057;28;20240;-81
2020/12/12 06:42:30;;;;;;;5.87;5.23;;;;;;;7.13;100.00;94987.41;5031981;28;20278;-82
2020/12/12 06:44:58;;;;;;;6.67;4.90;;;;;;;7.10;100.00;94983.34;5031903;28;20675;-83
2020/12/12 06:47:40;;;;;;;18.77;7.83;;;;;;;7.07;100.00;94993.31;5032079;28;20236;-82
2020/12/12 06:50:12;;;;;;;6.90;6.27;;;;;;;7.13;100.00;94979.56;5031647;28;20289;-82
2020/12/12 06:52:39;;;;;;;4.33;4.03;;;;;;;7.06;100.00;94976.81;5032173;28;20634;-82
2020/12/12 06:55:08;;;;;;;7.93;7.17;;;;;;;7.07;100.00;94986.31;5032246;28;20212;-82
2020/12/12 06:57:40;;;;;;;5.80;5.20;;;;;;;7.10;100.00;94979.91;5031934;28;20248;-82
2020/12/12 07:00:18;;;;;;;6.37;5.63;;;;;;;7.08;100.00;94972.25;5031576;28;20269;-82
2020/12/12 07:02:57;;;;;;;7.47;5.53;;;;;;;7.04;100.00;94968.34;5032078;28;20270;-82
2020/12/12 07:05:25;;;;;;;5.10;4.70;;;;;;;7.05;100.00;94956.91;5030521;28;20690;-83
2020/12/12 07:07:52;;;;;;;6.10;5.10;;;;;;;7.08;100.00;94955.75;5030951;28;20227;-81
2020/12/12 07:10:19;;;;;;;6.73;6.13;;;;;;;7.02;100.00;94964.25;5030614;28;20632;-82
2020/12/12 07:12:46;;;;;;;6.87;6.27;;;;;;;7.01;100.00;94962.66;5030565;28;20276;-82
2020/12/12 07:15:13;;;;;;;6.77;6.10;;;;;;;7.04;100.00;94955.28;5030420;28;20298;-82
2020/12/12 07:17:41;;;;;;;6.30;5.70;;;;;;;7.06;100.00;94958.53;5030916;28;20685;-82
2020/12/12 07:20:09;;;;;;;6.43;5.83;;;;;;;7.08;100.00;94963.59;5047779;28;20300;-82
2020/12/12 07:22:36;;;;;;;7.70;4.90;;;;;;;7.06;100.00;94968.16;5048531;28;20225;-82
2020/12/12 07:25:08;;;;;;;6.77;6.23;;;;;;;7.02;100.00;94970.31;5048354;28;20201;-82
2020/12/12 07:27:34;;;;;;;5.40;4.90;;;;;;;6.99;100.00;94969.81;5048478;28;20704;-82
2020/12/12 07:30:01;;;;;;;5.50;5.00;;;;;;;7.01;100.00;94957.41;5048461;28;20296;-83
2020/12/12 07:32:28;;;;;;;6.13;5.53;;;;;;;6.99;100.00;94970.63;5048138;28;20279;-82
2020/12/12 07:34:59;;;;;;;7.87;6.43;;;;;;;6.97;100.00;94966.56;5049442;28;20222;-82
2020/12/12 07:37:27;;;;;;;5.37;4.87;;;;;;;6.95;100.00;94960.69;5049623;28;20288;-82
2020/12/12 07:39:54;;;;;;;5.73;5.23;;;;;;;6.98;100.00;94962.97;5049258;28;20210;-82
2020/12/12 07:42:23;;;;;;;8.23;7.23;;;;;;;7.04;100.00;94964.91;5049296;28;20741;-83
2020/12/12 07:44:56;;;;;;;5.73;5.23;;;;;;;6.93;100.00;94968.72;5049573;28;20194;-84
2020/12/12 07:47:23;;;;;;;3.93;3.53;;;;;;;6.99;100.00;94961.97;5049521;28;20222;-82
2020/12/12 07:49:49;;;;;;;6.80;6.20;;;;;;;7.00;100.00;94951.38;5049316;28;20194;-82
2020/12/12 07:52:16;;;;;;;5.53;5.03;;;;;;;7.00;100.00;94961.84;5049311;28;20261;-83
2020/12/12 07:54:47;;;;;;;8.00;6.70;;;;;;;6.98;100.00;94962.97;5049583;28;20198;-83
2020/12/12 07:57:15;;;;;;;8.37;6.20;;;;;;;7.01;100.00;94946.97;5048923;28;20193;-82
2020/12/12 07:59:43;;;;;;;8.03;7.23;;;;;;;7.02;100.00;94954.63;5049423;28;20198;-85
2020/12/12 08:02:12;;;;;;;4.37;3.97;;;;;;;7.05;100.00;94950.88;5053295;28;20201;-84
2020/12/12 08:04:39;;;;;;;6.70;4.23;;;;;;;7.08;100.00;94947.91;5053562;28;20230;-85
2020/12/12 08:07:10;;;;;;;4.87;4.47;;;;;;;7.13;100.00;94940.38;5053079;28;20245;-85
2020/12/12 08:09:37;;;;;;;3.93;3.63;;;;;;;7.15;100.00;94946.25;5053011;28;20197;-83
2020/12/12 08:12:05;;;;;;;7.00;6.30;;;;;;;7.14;100.00;94936.81;5052680;28;20279;-84
2020/12/12 08:14:43;;;;;;;4.17;3.83;;;;;;;7.17;100.00;94939.06;5053067;28;20217;-83
2020/12/12 08:17:11;;;;;;;3.60;3.30;;;;;;;7.15;100.00;94931.38;5052828;28;20186;-85
2020/12/12 08:19:46;;;;;;;9.00;8.20;;;;;;;7.14;100.00;94937.59;5052968;28;20202;-84
2020/12/12 08:22:19;;;;;;;6.63;6.03;;;;;;;7.17;100.00;94931.22;5052084;28;20189;-85
2020/12/12 08:24:46;;;;;;;7.17;6.47;;;;;;;7.20;100.00;94937.91;5052976;28;20615;-84
2020/12/12 08:27:16;;;;;;;5.23;4.73;;;;;;;7.21;100.00;94919.44;5052760;28;20706;-84
2020/12/12 08:29:44;;;;;;;3.10;2.90;;;;;;;7.22;100.00;94915.84;5053044;28;20197;-85
2020/12/12 08:32:27;;;;;;;3.73;3.47;;;;;;;7.22;100.00;94923.69;5052281;28;20280;-85
2020/12/12 08:35:11;;;;;;;4.33;3.93;;;;;;;7.26;100.00;94909.28;5052588;28;20229;-84
2020/12/12 08:37:38;;;;;;;2.73;2.53;;;;;;;7.28;100.00;94907.31;5052906;28;20185;-84
2020/12/12 08:40:09;;;;;;;4.67;4.27;;;;;;;7.28;100.00;94896.06;5052540;28;20256;-84
2020/12/12 08:42:37;;;;;;;2.47;2.27;;;;;;;7.33;100.00;94889.31;5052232;28;20228;-85
2020/12/12 08:45:14;;;;;;;4.00;3.70;;;;;;;7.35;100.00;94886.56;5052900;28;20190;-85
2020/12/12 08:47:41;;;;;;;3.67;3.20;;;;;;;7.33;100.00;94878.88;5052810;28;20230;-85
2020/12/12 08:50:08;;;;;;;3.17;2.33;;;;;;;7.34;100.00;94880.50;5052316;28;20196;-84
2020/12/12 08:52:35;;;;;;;2.40;2.20;;;;;;;7.39;100.00;94859.06;5051961;28;20217;-84
2020/12/12 08:55:03;;;;;;;2.10;2.00;;;;;;;7.40;100.00;94865.91;5052402;28;20603;-84
2020/12/12 08:57:30;;;;;;;2.43;2.30;;;;;;;7.46;100.00;94853.97;5052309;28;20198;-84
2020/12/12 09:00:01;;;;;;;3.13;2.93;;;;;;;7.47;100.00;94847.75;5052201;28;20252;-82
2020/12/12 09:02:28;;;;;;;3.00;2.80;;;;;;;7.45;100.00;94845.31;5052151;28;20216;-84
2020/12/12 09:05:09;;;;;;;4.83;4.00;;;;;;;7.43;100.00;94846.47;5051511;28;20251;-83
2020/12/12 09:07:35;;;;;;;14.63;12.30;;;;;;;7.42;100.00;94839.63;5051107;28;20201;-83
2020/12/12 09:10:12;;;;;;;4.93;4.43;;;;;;;7.43;100.00;94836.81;5051798;28;20291;-83
2020/12/12 09:12:46;;;;;;;2.67;2.47;;;;;;;7.47;100.00;94839.91;5051484;28;20224;-83
2020/12/12 09:15:14;;;;;;;5.20;4.73;;;;;;;7.44;100.00;94829.78;5051816;28;20551;-83
2020/12/12 09:17:41;;;;;;;3.57;3.27;;;;;;;7.46;100.00;94820.78;5051840;28;20198;-83
2020/12/12 09:20:08;;;;;;;2.30;2.10;;;;;;;7.44;100.00;94830.59;5050934;28;20225;-84
2020/12/12 09:22:36;;;;;;;4.13;3.77;;;;;;;7.46;100.00;94825.22;5051657;28;20186;-84
2020/12/12 09:25:04;;;;;;;2.30;2.10;;;;;;;7.46;100.00;94830.44;5051362;28;20241;-84
2020/12/12 09:27:31;;;;;;;2.20;2.10;;;;;;;7.45;100.00;94818.34;5051320;28;20201;-83
2020/12/12 09:29:57;;;;;;;3.73;3.40;;;;;;;7.51;100.00;94815.03;5051195;28;20243;-84
2020/12/12 09:32:25;;;;;;;3.70;3.40;;;;;;;7.51;100.00;94809.81;5049686;28;20580;-83
2020/12/12 09:34:52;;;;;;;3.20;2.53;;;;;;;7.50;100.00;94816.03;5050901;28;20197;-82
2020/12/12 09:37:19;;;;;;;4.00;3.70;;;;;;;7.48;100.00;94808.38;5051307;28;20698;-83
2020/12/12 09:39:46;;;;;;;7.57;6.47;;;;;;;7.46;100.00;94809.53;5050819;28;20229;-83
2020/12/12 09:42:12;;;;;;;15.57;11.37;;;;;;;7.46;100.00;94802.50;5050583;28;20229;-83
2020/12/12 09:44:39;;;;;;;8.17;7.33;;;;;;;7.49;100.00;94791.69;5050998;28;20193;-83
2020/12/12 09:47:06;;;;;;;7.67;5.20;;;;;;;7.47;100.00;94783.19;5051053;28;20248;-84
2020/12/12 09:49:34;;;;;;;7.47;6.77;;;;;;;7.52;100.00;94782.69;5051409;28;20296;-84
2020/12/12 09:52:01;;;;;;;3.33;3.00;;;;;;;7.49;100.00;94780.44;5051094;28;20275;-84
2020/12/12 09:54:28;;;;;;;6.20;5.70;;;;;;;7.52;100.00;94775.66;5051364;28;20682;-84
2020/12/12 09:56:54;;;;;;;2.93;2.73;;;;;;;7.50;100.00;94758.50;5050449;28;20874;-85
2020/12/12 09:59:22;;;;;;;3.73;3.43;;;;;;;7.50;100.00;94769.78;5051232;28;20194;-86
2020/12/12 10:01:49;;;;;;;2.60;2.40;;;;;;;7.51;100.00;94760.94;5051147;28;20209;-85
2020/12/12 10:04:15;;;;;;;2.60;2.40;;;;;;;7.51;100.00;94760.94;5050986;28;20259;-84
2020/12/12 10:06:44;;;;;;;2.07;1.97;;;;;;;7.49;100.00;94762.13;5050439;28;20260;-85
2020/12/12 10:09:10;;;;;;;2.50;2.40;;;;;;;7.53;100.00;94764.19;5050677;28;20236;-84
2020/12/12 10:11:37;;;;;;;5.67;5.10;;;;;;;7.55;100.00;94759.63;5049666;28;20197;-83
2020/12/12 10:14:04;;;;;;;3.30;3.10;;;;;;;7.52;100.00;94752.13;5050483;28;20209;-84
2020/12/12 10:16:31;;;;;;;4.63;4.17;;;;;;;7.54;100.00;94749.31;5050152;28;20200;-83
2020/12/12 10:18:57;;;;;;;3.17;2.97;;;;;;;7.57;100.00;94748.97;5050516;28;20201;-83
2020/12/12 10:21:24;;;;;;;3.87;3.57;;;;;;;7.55;100.00;94757.00;5050116;28;20283;-83
2020/12/12 10:23:52;;;;;;;4.53;4.13;;;;;;;7.56;100.00;94742.13;5049271;28;20219;-83
2020/12/12 10:26:19;;;;;;;8.53;7.73;;;;;;;7.57;100.00;94754.19;5049967;28;20292;-84
2020/12/12 10:28:45;;;;;;;2.87;2.67;;;;;;;7.57;100.00;94741.94;5050571;28;20193;-84
2020/12/12 10:31:12;;;;;;;3.47;2.80;;;;;;;7.60;100.00;94743.41;5050406;28;20198;-84
2020/12/12 10:33:39;;;;;;;2.50;2.30;;;;;;;7.56;100.00;94742.94;5050551;28;20328;-85
2020/12/12 10:36:06;;;;;;;3.00;2.80;;;;;;;7.51;100.00;94734.78;5049865;28;20289;-84
2020/12/12 10:38:34;;;;;;;4.27;3.50;;;;;;;7.53;100.00;94738.06;5039807;28;20226;-84
2020/12/12 10:41:10;;;;;;;7.57;4.97;;;;;;;7.59;100.00;94734.75;5046963;28;20205;-86
2020/12/12 10:43:37;;;;;;;2.70;2.47;;;;;;;7.58;100.00;94742.75;5050031;28;20269;-85
2020/12/12 10:46:04;;;;;;;3.30;2.80;;;;;;;7.60;100.00;94738.16;5049900;28;20206;-84
2020/12/12 10:48:31;;;;;;;2.70;2.50;;;;;;;7.60;100.00;94730.31;5050194;28;20228;-84
2020/12/12 10:50:58;;;;;;;4.20;2.90;;;;;;;7.61;100.00;94732.75;5049671;28;20278;-85
2020/12/12 10:53:24;;;;;;;2.87;2.60;;;;;;;7.59;100.00;94729.50;5049977;28;20610;-85
2020/12/12 10:55:51;;;;;;;2.60;2.40;;;;;;;7.58;100.00;94730.47;5049586;28;20202;-86
2020/12/12 10:58:19;;;;;;;3.90;3.60;;;;;;;7.57;100.00;94734.09;5050075;28;20288;-85
2020/12/12 11:00:46;;;;;;;4.80;4.33;;;;;;;7.65;100.00;94730.59;5049703;28;20293;-84
2020/12/12 11:03:13;;;;;;;54.50;11.07;;;;;;;7.63;100.00;94728.16;5049190;28;20296;-84
2020/12/12 11:05:40;;;;;;;60.93;13.43;;;;;;;7.60;100.00;94714.63;5049905;28;20288;-87
2020/12/12 11:08:07;;;;;;;29.43;8.23;;;;;;;7.63;100.00;94728.16;5050238;28;20192;-84
2020/12/12 11:10:34;;;;;;;62.17;11.00;;;;;;;7.57;100.00;94718.41;5050575;28;20208;-86
2020/12/12 11:13:01;;;;;;;69.17;13.47;;;;;;;7.55;100.00;94720.41;5049830;28;20332;-83
2020/12/12 11:15:28;;;;;;;230.23;33.97;;;;;;;7.52;100.00;94715.53;5049295;28;20204;-83
2020/12/12 11:17:55;;;;;;;53.33;15.50;;;;;;;7.58;100.00;94708.75;5050330;28;20634;-85
2020/12/12 11:20:22;;;;;;;128.70;19.07;;;;;;;7.61;100.00;94719.66;5049600;28;20324;-82
2020/12/12 11:22:49;;;;;;;289.40;30.67;;;;;;;7.59;100.00;94729.50;5049691;28;20190;-85
2020/12/12 11:25:15;;;;;;;138.67;21.23;;;;;;;7.61;100.00;94729.31;5049559;28;20229;-85
2020/12/12 11:27:47;;;;;;;95.43;18.83;;;;;;;7.65;100.00;94729.78;5049265;28;20198;-85
2020/12/12 11:30:13;;;;;;;106.50;16.30;;;;;;;7.69;100.00;94738.88;5049747;28;20688;-82
2020/12/12 11:32:42;;;;;;;101.80;22.30;;;;;;;7.74;100.00;94740.00;5049703;28;20283;-84
2020/12/12 11:35:13;;;;;;;128.20;20.87;;;;;;;7.74;100.00;94737.38;5052198;28;20201;-83
2020/12/12 11:40:24;;;;;;;9.03;7.93;;;;;;;7.86;100.00;94733.34;5050317;28;20237;-85